createdAt,value
2018-10-19T00:01:32.657Z,37.40
2018-10-19T00:04:02.531Z,37.03
2018-10-19T00:06:39.141Z,36.27
2018-10-19T00:09:11.869Z,38.20
2018-10-19T00:11:44.676Z,35.43
2018-10-19T00:14:16.144Z,35.37
2018-10-19T00:16:47.534Z,34.30
2018-10-19T00:19:17.998Z,34.57
2018-10-19T00:21:48.034Z,37.70
2018-10-19T00:24:23.859Z,35.37
2018-10-19T00:26:57.534Z,35.10
2018-10-19T00:29:29.481Z,36.23
2018-10-19T00:32:01.560Z,35.67
2018-10-19T00:34:32.028Z,34.13
2018-10-19T00:37:02.213Z,33.07
2018-10-19T00:39:32.480Z,34.63
2018-10-19T00:42:02.413Z,35.53
2018-10-19T00:44:32.922Z,33.13
2018-10-19T00:47:03.724Z,35.47
2018-10-19T00:49:34.776Z,34.67
2018-10-19T00:52:06.044Z,34.73
2018-10-19T00:54:37.102Z,37.20
2018-10-19T00:57:07.358Z,35.27
2018-10-19T00:59:37.855Z,35.53
2018-10-19T01:02:08.284Z,33.00
2018-10-19T01:04:38.928Z,36.70
2018-10-19T01:07:13.707Z,33.63
2018-10-19T01:09:44.404Z,34.30
2018-10-19T01:12:15.349Z,35.70
2018-10-19T01:14:45.929Z,33.30
2018-10-19T01:17:16.123Z,35.17
2018-10-19T01:19:46.723Z,33.33
2018-10-19T01:22:17.925Z,35.57
2018-10-19T01:24:48.025Z,31.63
2018-10-19T01:27:18.317Z,33.57
2018-10-19T01:29:48.557Z,32.40
2018-10-19T01:32:20.565Z,31.90
2018-10-19T01:35:03.506Z,32.73
2018-10-19T01:37:44.036Z,33.47
2018-10-19T01:40:15.074Z,32.27
2018-10-19T01:42:45.902Z,33.37
2018-10-19T01:45:17.070Z,33.00
2018-10-19T01:47:47.643Z,31.27
2018-10-19T01:50:17.682Z,31.13
2018-10-19T01:52:49.323Z,35.00
2018-10-19T01:55:21.937Z,31.37
2018-10-19T01:57:53.580Z,33.23
2018-10-19T02:00:23.666Z,30.83
2018-10-19T02:02:54.145Z,31.53
2018-10-19T02:05:25.031Z,31.13
2018-10-19T02:07:55.370Z,31.07
2018-10-19T02:10:30.181Z,30.60
2018-10-19T02:13:00.470Z,29.60
2018-10-19T02:15:31.484Z,30.03
2018-10-19T02:18:01.693Z,32.33
2018-10-19T02:20:37.545Z,30.33
2018-10-19T02:23:07.397Z,32.73
2018-10-19T02:25:39.194Z,34.47
2018-10-19T02:28:10.276Z,33.47
2018-10-19T02:30:41.912Z,33.07
2018-10-19T02:33:12.107Z,32.63
2018-10-19T02:35:47.088Z,33.67
2018-10-19T02:38:18.224Z,33.60
2018-10-19T02:40:48.745Z,33.70
2018-10-19T02:43:21.973Z,34.83
2018-10-19T02:45:53.082Z,32.70
2018-10-19T02:48:23.763Z,32.17
2018-10-19T02:50:53.964Z,33.40
2018-10-19T02:53:24.513Z,31.30
2018-10-19T02:55:54.723Z,29.87
2018-10-19T02:58:26.253Z,31.73
2018-10-19T03:00:59.848Z,32.70
2018-10-19T03:03:30.805Z,29.53
2018-10-19T03:06:02.122Z,32.37
2018-10-19T03:08:32.781Z,29.67
2018-10-19T03:11:04.197Z,32.03
2018-10-19T03:13:34.197Z,30.00
2018-10-19T03:16:04.022Z,33.77
2018-10-19T03:18:34.141Z,33.93
2018-10-19T03:21:04.002Z,31.60
2018-10-19T03:23:33.936Z,30.83
2018-10-19T03:26:05.358Z,30.03
2018-10-19T03:28:36.418Z,30.63
2018-10-19T03:31:06.639Z,30.53
2018-10-19T03:33:36.940Z,29.10
2018-10-19T03:36:08.036Z,29.80
2018-10-19T03:38:39.964Z,32.37
2018-10-19T03:41:11.203Z,30.90
2018-10-19T03:43:42.420Z,28.50
2018-10-19T03:46:14.939Z,28.50
2018-10-19T03:48:45.445Z,28.83
2018-10-19T03:51:15.829Z,28.17
2018-10-19T03:53:46.238Z,28.90
2018-10-19T03:56:16.813Z,29.80
2018-10-19T03:58:47.341Z,31.63
2018-10-19T04:01:18.507Z,29.03
2018-10-19T04:03:49.782Z,30.00
2018-10-19T04:06:24.119Z,28.40
2018-10-19T04:08:55.225Z,27.50
2018-10-19T04:11:26.676Z,27.83
2018-10-19T04:13:56.861Z,26.97
2018-10-19T04:16:31.832Z,28.23
2018-10-19T04:19:02.225Z,29.40
2018-10-19T04:21:34.276Z,25.83
2018-10-19T04:24:06.160Z,26.87
2018-10-19T04:26:37.325Z,25.57
2018-10-19T04:29:07.860Z,26.80
2018-10-19T04:31:38.286Z,26.27
2018-10-19T04:34:08.914Z,24.80
2018-10-19T04:36:39.401Z,26.63
2018-10-19T04:39:10.780Z,26.40
2018-10-19T04:41:42.848Z,25.80
2018-10-19T04:44:13.652Z,24.97
2018-10-19T04:46:48.463Z,26.47
2018-10-19T04:49:19.728Z,27.07
2018-10-19T04:51:50.699Z,25.33
2018-10-19T04:54:21.102Z,26.50
2018-10-19T04:56:52.857Z,25.47
2018-10-19T04:59:23.469Z,25.50
2018-10-19T05:01:54.712Z,26.33
2018-10-19T05:04:25.151Z,25.03
2018-10-19T05:06:56.739Z,25.63
2018-10-19T05:09:27.822Z,28.33
2018-10-19T05:11:58.246Z,24.80
2018-10-19T05:14:28.625Z,26.63
2018-10-19T05:17:02.866Z,25.77
2018-10-19T05:19:33.258Z,25.33
2018-10-19T05:22:03.203Z,25.23
2018-10-19T05:24:33.168Z,24.83
2018-10-19T05:27:03.133Z,24.13
2018-10-19T05:29:33.710Z,25.03
2018-10-19T05:32:06.246Z,24.50
2018-10-19T05:34:40.035Z,23.37
2018-10-19T05:37:10.376Z,23.83
2018-10-19T05:39:50.299Z,25.93
2018-10-19T05:42:21.719Z,25.03
2018-10-19T05:45:03.352Z,25.17
2018-10-19T05:47:33.375Z,25.33
2018-10-19T05:50:03.413Z,25.53
2018-10-19T05:52:39.728Z,24.87
2018-10-19T05:55:11.878Z,24.10
2018-10-19T05:57:42.445Z,23.90
2018-10-19T06:00:13.240Z,23.53
2018-10-19T06:02:43.776Z,23.17
2018-10-19T06:05:14.747Z,23.13
2018-10-19T06:07:46.838Z,24.40
2018-10-19T06:10:20.025Z,24.43
2018-10-19T06:12:53.461Z,23.07
2018-10-19T06:15:28.265Z,24.80
2018-10-19T06:18:01.647Z,24.03
2018-10-19T06:20:31.700Z,23.47
2018-10-19T06:23:01.993Z,22.67
2018-10-19T06:25:33.869Z,22.13
2018-10-19T06:28:04.410Z,21.93
2018-10-19T06:30:35.269Z,23.77
2018-10-19T06:33:05.542Z,21.17
2018-10-19T06:35:35.789Z,21.07
2018-10-19T06:38:07.125Z,21.60
2018-10-19T06:40:39.103Z,21.33
2018-10-19T06:43:09.674Z,20.43
2018-10-19T06:45:41.341Z,21.30
2018-10-19T06:48:12.600Z,22.00
2018-10-19T06:50:43.860Z,21.00
2018-10-19T06:53:15.703Z,20.97
2018-10-19T06:55:46.192Z,20.30
2018-10-19T06:58:20.665Z,20.70
2018-10-19T07:00:52.227Z,18.33
2018-10-19T07:03:36.806Z,20.60
2018-10-19T07:06:08.480Z,20.57
2018-10-19T07:08:41.319Z,21.07
2018-10-19T07:11:12.710Z,18.60
2018-10-19T07:13:42.572Z,18.40
2018-10-19T07:18:50.754Z,17.50
2018-10-19T07:21:22.224Z,18.30
2018-10-19T07:24:00.645Z,17.67
2018-10-19T07:26:31.920Z,17.67
2018-10-19T07:29:03.150Z,17.60
2018-10-19T07:31:33.908Z,17.47
2018-10-19T07:34:04.064Z,16.63
2018-10-19T07:36:36.978Z,18.27
2018-10-19T07:39:09.086Z,18.07
2018-10-19T07:41:39.286Z,17.63
2018-10-19T07:44:11.304Z,16.57
2018-10-19T07:46:43.381Z,17.03
2018-10-19T07:49:13.767Z,17.17
2018-10-19T07:51:44.333Z,16.77
2018-10-19T07:54:15.318Z,17.53
2018-10-19T07:56:48.963Z,18.43
2018-10-19T07:59:20.274Z,18.07
2018-10-19T08:01:50.783Z,17.03
2018-10-19T08:04:38.030Z,16.53
2018-10-19T08:07:09.564Z,17.73
2018-10-19T08:09:39.904Z,15.97
2018-10-19T08:12:10.525Z,15.90
2018-10-19T08:14:40.905Z,16.20
2018-10-19T08:17:11.718Z,15.93
2018-10-19T08:19:42.988Z,16.03
2018-10-19T08:22:46.799Z,16.03
2018-10-19T08:25:17.110Z,15.10
2018-10-19T08:27:47.561Z,15.60
2018-10-19T08:30:17.861Z,15.50
2018-10-19T08:32:48.440Z,15.20
2018-10-19T08:35:19.413Z,15.30
2018-10-19T08:37:50.104Z,15.53
2018-10-19T08:40:20.835Z,16.13
2018-10-19T08:42:51.731Z,14.47
2018-10-19T08:45:24.275Z,14.37
2018-10-19T08:47:55.738Z,17.03
2018-10-19T08:50:27.955Z,15.67
2018-10-19T08:52:59.990Z,15.97
2018-10-19T08:55:30.347Z,14.97
2018-10-19T08:58:01.997Z,15.83
2018-10-19T09:00:32.229Z,16.43
2018-10-19T09:03:04.025Z,16.87
2018-10-19T09:05:33.993Z,17.33
2018-10-19T09:08:03.826Z,17.03
2018-10-19T09:10:33.648Z,17.73
2018-10-19T09:13:04.367Z,18.57
2018-10-19T09:15:34.166Z,19.23
2018-10-19T09:18:04.171Z,17.37
2018-10-19T09:20:34.100Z,19.10
2018-10-19T09:23:04.689Z,18.73
2018-10-19T09:25:35.279Z,16.70
2018-10-19T09:28:07.226Z,17.23
2018-10-19T09:30:38.899Z,17.00
2018-10-19T09:33:18.007Z,17.53
2018-10-19T09:35:51.363Z,15.90
2018-10-19T09:38:22.018Z,16.57
2018-10-19T09:40:53.090Z,22.93
2018-10-19T09:43:25.157Z,22.50
2018-10-19T09:45:55.672Z,26.13
2018-10-19T09:48:27.518Z,25.07
2018-10-19T09:50:59.092Z,26.47
2018-10-19T09:53:31.455Z,30.17
2018-10-19T09:56:01.595Z,28.27
2018-10-19T09:58:32.289Z,29.70
2018-10-19T10:01:02.487Z,29.87
2018-10-19T10:03:32.901Z,30.07
2018-10-19T10:06:02.795Z,30.80
2018-10-19T10:08:40.493Z,31.53
2018-10-19T10:11:31.903Z,30.97
2018-10-19T10:14:02.009Z,31.40
2018-10-19T10:16:39.782Z,31.17
2018-10-19T10:19:12.667Z,30.93
2018-10-19T10:21:43.437Z,29.00
2018-10-19T10:24:14.639Z,28.73
2018-10-19T10:26:46.781Z,29.07
2018-10-19T10:29:17.399Z,29.17
2018-10-19T10:31:48.850Z,31.93
2018-10-19T10:34:19.469Z,28.70
2018-10-19T10:36:50.070Z,28.70
2018-10-19T10:39:20.202Z,27.00
2018-10-19T10:41:51.119Z,29.63
2018-10-19T10:44:23.166Z,28.97
2018-10-19T10:46:54.476Z,28.70
2018-10-19T10:49:24.823Z,29.50
2018-10-19T10:51:56.669Z,31.03
2018-10-19T10:54:27.971Z,29.53
2018-10-19T10:56:59.662Z,28.80
2018-10-19T10:59:31.149Z,30.43
2018-10-19T11:02:03.143Z,28.87
2018-10-19T11:04:37.369Z,27.63
2018-10-19T11:07:07.892Z,27.13
2018-10-19T11:09:38.699Z,28.00
2018-10-19T11:12:09.578Z,26.00
2018-10-19T11:14:40.504Z,27.80
2018-10-19T11:17:10.883Z,26.80
2018-10-19T11:19:42.831Z,24.43
2018-10-19T11:22:14.027Z,28.03
2018-10-19T11:24:45.727Z,27.53
2018-10-19T11:27:16.898Z,27.93
2018-10-19T11:29:48.112Z,26.70
2018-10-19T11:32:18.936Z,26.57
2018-10-19T11:34:51.964Z,26.90
2018-10-19T11:37:22.581Z,28.00
2018-10-19T11:40:03.358Z,28.80
2018-10-19T11:42:34.006Z,26.67
2018-10-19T11:45:05.390Z,26.23
2018-10-19T11:47:37.844Z,26.73
2018-10-19T11:50:10.562Z,27.90
2018-10-19T11:52:42.627Z,27.30
2018-10-19T11:55:13.899Z,25.53
2018-10-19T11:57:44.806Z,25.87
2018-10-19T12:00:16.636Z,27.83
2018-10-19T12:02:48.947Z,26.70
2018-10-19T12:05:19.380Z,27.10
2018-10-19T12:07:49.584Z,25.43
2018-10-19T12:10:19.800Z,26.80
2018-10-19T12:12:55.175Z,27.70
2018-10-19T12:15:25.011Z,26.77
2018-10-19T12:17:56.918Z,25.30
2018-10-19T12:20:28.010Z,27.30
2018-10-19T12:22:59.475Z,25.60
2018-10-19T12:25:30.203Z,26.80
2018-10-19T12:28:01.782Z,26.00
2018-10-19T12:30:31.932Z,24.67
2018-10-19T12:33:02.521Z,25.77
2018-10-19T12:35:34.613Z,25.60
2018-10-19T12:38:05.143Z,26.23
2018-10-19T12:40:37.299Z,26.43
2018-10-19T12:43:09.103Z,25.47
2018-10-19T12:46:50.563Z,26.07
2018-10-19T12:49:24.216Z,26.43
2018-10-19T12:51:54.805Z,26.87
2018-10-19T12:54:27.081Z,27.23
2018-10-19T12:56:58.250Z,26.27
2018-10-19T12:59:28.517Z,26.53
2018-10-19T13:01:59.997Z,25.80
2018-10-19T13:04:37.229Z,26.03
2018-10-19T13:07:12.988Z,25.90
2018-10-19T13:09:43.844Z,28.50
2018-10-19T13:12:20.237Z,26.20
2018-10-19T13:14:52.441Z,26.43
2018-10-19T13:17:24.423Z,26.37
2018-10-19T13:19:55.925Z,24.93
2018-10-19T13:22:27.466Z,26.37
2018-10-19T13:24:59.173Z,26.97
2018-10-19T13:27:29.476Z,28.07
2018-10-19T13:30:00.026Z,26.20
2018-10-19T13:32:31.096Z,26.77
2018-10-19T13:35:01.917Z,25.90
2018-10-19T13:37:32.255Z,25.43
2018-10-19T13:40:02.529Z,25.90
2018-10-19T13:42:33.186Z,26.77
2018-10-19T13:45:03.766Z,26.00
2018-10-19T13:47:35.191Z,25.07
2018-10-19T13:50:07.569Z,23.57
2018-10-19T13:52:39.131Z,25.43
2018-10-19T13:55:14.613Z,24.33
2018-10-19T13:57:48.276Z,25.83
2018-10-19T14:00:24.536Z,25.17
2018-10-19T14:02:54.976Z,25.07
2018-10-19T14:05:26.889Z,23.83
2018-10-19T14:07:56.937Z,24.10
2018-10-19T14:10:27.175Z,23.53
2018-10-19T14:12:57.838Z,23.73
2018-10-19T14:15:29.056Z,24.07
2018-10-19T14:17:59.406Z,25.57
2018-10-19T14:20:32.640Z,24.87
2018-10-19T14:23:08.443Z,23.83
2018-10-19T14:25:39.102Z,24.40
2018-10-19T14:28:09.803Z,24.30
2018-10-19T14:30:55.447Z,24.53
2018-10-19T14:33:34.606Z,25.53
2018-10-19T14:36:05.559Z,24.67
2018-10-19T14:38:41.328Z,24.17
2018-10-19T14:41:28.195Z,24.23
2018-10-19T14:43:59.523Z,25.00
2018-10-19T14:46:32.397Z,24.83
2018-10-19T14:49:02.377Z,23.57
2018-10-19T14:51:34.015Z,24.57
2018-10-19T14:54:04.707Z,23.60
2018-10-19T14:56:35.307Z,22.67
2018-10-19T14:59:06.131Z,24.07
2018-10-19T15:01:38.415Z,23.87
2018-10-19T15:04:09.628Z,24.10
2018-10-19T15:06:40.253Z,23.20
2018-10-19T15:09:18.431Z,25.27
2018-10-19T15:11:56.166Z,23.67
2018-10-19T15:14:31.412Z,23.43
2018-10-19T15:17:03.986Z,24.50
2018-10-19T15:19:35.891Z,24.33
2018-10-19T15:22:06.484Z,23.67
2018-10-19T15:24:37.053Z,24.63
2018-10-19T15:27:07.706Z,24.87
2018-10-19T15:29:38.699Z,26.33
2018-10-19T15:32:08.915Z,24.53
2018-10-19T15:34:39.366Z,25.53
2018-10-19T15:37:09.853Z,24.10
2018-10-19T15:39:40.196Z,24.83
2018-10-19T15:42:11.149Z,24.17
2018-10-19T15:44:42.840Z,24.37
2018-10-19T15:47:13.138Z,25.20
2018-10-19T15:49:43.443Z,24.63
2018-10-19T15:52:14.205Z,24.83
2018-10-19T15:54:44.928Z,24.27
2018-10-19T15:57:17.011Z,23.43
2018-10-19T15:59:48.347Z,23.93
2018-10-19T16:02:19.550Z,24.17
2018-10-19T16:04:53.706Z,23.47
2018-10-19T16:07:24.105Z,23.27
2018-10-19T16:09:56.782Z,22.50
2018-10-19T16:12:27.968Z,22.97
2018-10-19T16:14:59.867Z,21.87
2018-10-19T16:17:30.861Z,22.00
2018-10-19T16:20:01.917Z,23.93
2018-10-19T16:22:35.500Z,22.77
2018-10-19T16:25:06.028Z,22.43
2018-10-19T16:27:41.906Z,22.33
2018-10-19T16:30:13.016Z,21.77
2018-10-19T16:32:44.189Z,22.80
2018-10-19T16:38:05.687Z,22.13
2018-10-19T16:40:37.233Z,22.33
2018-10-19T16:43:08.506Z,22.37
2018-10-19T16:45:39.290Z,23.90
2018-10-19T16:48:11.227Z,22.87
2018-10-19T16:50:42.610Z,23.70
2018-10-19T16:53:13.381Z,23.57
2018-10-19T16:55:44.458Z,23.27
2018-10-19T16:58:15.635Z,22.83
2018-10-19T17:00:46.697Z,22.33
2018-10-19T17:03:17.097Z,23.13
2018-10-19T17:05:48.447Z,23.23
2018-10-19T17:08:19.005Z,23.40
2018-10-19T17:10:50.288Z,24.00
2018-10-19T17:13:20.547Z,24.07
2018-10-19T17:15:51.966Z,23.67
2018-10-19T17:18:22.166Z,24.10
2018-10-19T17:20:52.443Z,25.53
2018-10-19T17:23:23.029Z,25.63
2018-10-19T17:25:54.353Z,26.50
2018-10-19T17:28:28.687Z,24.83
2018-10-19T17:31:01.059Z,26.23
2018-10-19T17:33:31.555Z,26.40
2018-10-19T17:36:03.881Z,26.50
2018-10-19T17:38:33.789Z,26.80
2018-10-19T17:41:06.013Z,26.50
2018-10-19T17:43:37.439Z,27.87
2018-10-19T17:46:07.793Z,26.57
2018-10-19T17:48:39.131Z,28.53
2018-10-19T17:51:11.161Z,28.13
2018-10-19T17:53:41.671Z,28.63
2018-10-19T17:56:14.420Z,28.87
2018-10-19T17:58:45.650Z,28.17
2018-10-19T18:01:19.239Z,27.73
2018-10-19T18:03:50.468Z,28.30
2018-10-19T18:06:20.815Z,27.77
2018-10-19T18:08:53.208Z,28.77
2018-10-19T18:11:23.851Z,28.53
2018-10-19T18:13:55.309Z,27.87
2018-10-19T18:16:26.094Z,28.57
2018-10-19T18:18:59.177Z,26.30
2018-10-19T18:21:31.553Z,28.30
2018-10-19T18:24:02.929Z,28.23
2018-10-19T18:26:33.603Z,28.80
2018-10-19T18:29:04.056Z,28.20
2018-10-19T18:31:34.804Z,27.70
2018-10-19T18:34:06.270Z,28.97
2018-10-19T18:36:37.505Z,28.33
2018-10-19T18:39:13.855Z,29.20
2018-10-19T18:41:45.267Z,29.00
2018-10-19T18:44:17.884Z,28.53
2018-10-19T18:46:49.442Z,29.13
2018-10-19T18:49:20.797Z,29.07
2018-10-19T18:51:51.880Z,28.23
2018-10-19T18:54:25.192Z,28.53
2018-10-19T18:57:12.430Z,29.23
2018-10-19T18:59:44.027Z,27.43
2018-10-19T19:02:15.195Z,31.23
2018-10-19T19:04:45.882Z,31.60
2018-10-19T19:07:18.120Z,30.30
2018-10-19T19:09:54.798Z,31.17
2018-10-19T19:12:25.831Z,32.67
2018-10-19T19:14:57.529Z,32.67
2018-10-19T19:17:29.028Z,32.00
2018-10-19T19:20:04.684Z,31.40
2018-10-19T19:22:35.373Z,32.23
2018-10-19T19:25:11.713Z,31.13
2018-10-19T19:27:43.293Z,33.17
2018-10-19T19:30:38.834Z,29.40
2018-10-19T19:33:31.508Z,31.37
2018-10-19T19:36:01.798Z,32.50
2018-10-19T19:38:32.214Z,30.10
2018-10-19T19:41:07.411Z,31.57
2018-10-19T19:43:41.247Z,31.20
2018-10-19T19:46:12.491Z,32.03
2018-10-19T19:48:49.229Z,31.13
2018-10-19T19:51:22.456Z,30.13
2018-10-19T19:53:53.546Z,28.80
2018-10-19T19:56:23.987Z,31.03
2018-10-19T19:58:54.938Z,30.03
2018-10-19T20:01:25.505Z,29.47
2018-10-19T20:03:56.767Z,28.83
2018-10-19T20:06:29.012Z,30.90
2018-10-19T20:09:00.125Z,29.70
2018-10-19T20:11:30.795Z,30.43
2018-10-19T20:14:01.934Z,30.20
2018-10-19T20:16:32.413Z,32.80
2018-10-19T20:19:03.042Z,31.50
2018-10-19T20:21:33.701Z,35.33
2018-10-19T20:24:04.352Z,32.33
2018-10-19T20:26:34.971Z,36.53
2018-10-19T20:29:06.406Z,37.57
2018-10-19T20:31:37.104Z,37.23
2018-10-19T20:34:08.329Z,38.33
2018-10-19T20:36:39.015Z,36.47
2018-10-19T20:39:12.172Z,35.07
2018-10-19T20:41:42.892Z,34.23
2018-10-19T20:44:13.432Z,35.40
2018-10-19T20:46:44.017Z,34.53
2018-10-19T20:49:14.150Z,35.47
2018-10-19T20:51:44.466Z,35.93
2018-10-19T20:54:14.814Z,35.33
2018-10-19T20:56:45.150Z,36.00
2018-10-19T20:59:16.670Z,36.40
2018-10-19T21:01:51.429Z,38.40
2018-10-19T21:04:23.045Z,38.97
2018-10-19T21:06:53.588Z,38.13
2018-10-19T21:09:23.902Z,36.57
2018-10-19T21:11:53.877Z,37.73
2018-10-19T21:14:26.109Z,36.87
2018-10-19T21:16:56.916Z,36.80
2018-10-19T21:19:27.737Z,37.30
2018-10-19T21:21:57.818Z,37.10
2018-10-19T21:24:28.182Z,37.17
2018-10-19T21:26:58.936Z,33.83
2018-10-19T21:29:29.508Z,35.27
2018-10-19T21:32:00.389Z,33.90
2018-10-19T21:34:32.710Z,36.40
2018-10-19T21:37:04.966Z,35.67
2018-10-19T21:39:36.020Z,36.10
2018-10-19T21:42:07.671Z,32.50
2018-10-19T21:44:38.029Z,35.47
2018-10-19T21:47:08.463Z,32.07
2018-10-19T21:49:39.372Z,33.70
2018-10-19T21:52:11.134Z,32.53
2018-10-19T21:54:42.382Z,33.17
2018-10-19T21:57:13.549Z,33.03
2018-10-19T21:59:45.457Z,32.73
2018-10-19T22:02:16.608Z,33.93
2018-10-19T22:04:47.197Z,34.60
2018-10-19T22:07:18.079Z,31.20
2018-10-19T22:09:49.461Z,31.23
2018-10-19T22:12:19.732Z,31.03
2018-10-19T22:14:50.178Z,34.40
2018-10-19T22:17:20.613Z,35.07
2018-10-19T22:19:51.067Z,32.87
2018-10-19T22:22:22.402Z,32.87
2018-10-19T22:24:52.925Z,33.97
2018-10-19T22:27:23.895Z,33.67
2018-10-19T22:29:54.315Z,32.17
2018-10-19T22:32:26.675Z,30.07
2018-10-19T22:34:58.484Z,31.33
2018-10-19T22:37:34.542Z,30.63
2018-10-19T22:40:04.664Z,31.20
2018-10-19T22:42:35.661Z,33.27
2018-10-19T22:45:07.843Z,32.50
2018-10-19T22:47:37.647Z,30.43
2018-10-19T22:50:09.441Z,31.23
2018-10-19T22:52:39.706Z,29.50
2018-10-19T22:55:10.916Z,29.60
2018-10-19T22:57:42.555Z,28.30
2018-10-19T23:00:13.983Z,28.03
2018-10-19T23:02:45.493Z,27.57
2018-10-19T23:05:16.095Z,26.40
2018-10-19T23:07:46.637Z,27.83
2018-10-19T23:10:16.964Z,28.07
2018-10-19T23:12:47.337Z,27.07
2018-10-19T23:15:20.560Z,27.10
2018-10-19T23:17:50.941Z,27.33
2018-10-19T23:20:22.046Z,26.20
2018-10-19T23:22:53.814Z,27.10
2018-10-19T23:25:24.319Z,27.43
2018-10-19T23:27:55.761Z,27.30
2018-10-19T23:30:26.427Z,27.23
2018-10-19T23:32:58.293Z,28.37
2018-10-19T23:35:29.538Z,27.60
2018-10-19T23:37:59.666Z,28.37
2018-10-19T23:40:30.176Z,26.77
2018-10-19T23:43:01.714Z,27.37
2018-10-19T23:45:31.909Z,27.27
2018-10-19T23:48:02.036Z,26.67
2018-10-19T23:50:32.470Z,26.97
2018-10-19T23:53:02.276Z,28.00
2018-10-19T23:55:33.516Z,27.67
2018-10-19T23:58:03.904Z,28.50
